Terminal Aerodrome Forecast
Issued by NWS

Home | Current Version | Previous Version | Graphics & Text | Print | Product List | Glossary On
Versions: 1 2 3 4 5 6 7 8 9 10 11 12 13 14 15 16 17 18 19 20
760
FTUS43 KUNR 281132 CCA
TAFGCC
TAF COR
KGCC 281132Z 2812/2912 01006KT P6SM OVC005
     FM281900 05008KT P6SM OVC015
     FM290000 13006KT P6SM OVC007=

USA.gov is the U.S. government's official web portal to all federal, state and local government web resources and services.